createdAt,value
2022-12-26T00:00:58.267Z,11.40
2022-12-26T00:03:27.730Z,11.30
2022-12-26T00:05:54.655Z,11.30
2022-12-26T00:08:21.712Z,11.30
2022-12-26T00:10:49.649Z,11.30
2022-12-26T00:13:38.543Z,11.30
2022-12-26T00:16:13.522Z,11.30
2022-12-26T00:18:40.793Z,11.30
2022-12-26T00:21:09.500Z,11.30
2022-12-26T00:23:37.269Z,11.20
2022-12-26T00:26:11.213Z,11.10
2022-12-26T00:28:38.063Z,11.20
2022-12-26T00:31:10.982Z,11.10
2022-12-26T00:33:38.489Z,11.10
2022-12-26T00:36:08.502Z,11.20
2022-12-26T00:38:37.900Z,11.10
2022-12-26T00:41:06.204Z,11.00
2022-12-26T00:43:33.551Z,10.90
2022-12-26T00:46:00.902Z,10.80
2022-12-26T00:48:28.365Z,10.70
2022-12-26T00:51:06.372Z,10.70
2022-12-26T00:53:33.799Z,10.70
2022-12-26T00:56:00.871Z,10.70
2022-12-26T00:58:30.103Z,10.60
2022-12-26T01:01:09.415Z,10.50
2022-12-26T01:03:38.468Z,10.50
2022-12-26T01:06:05.425Z,10.50
2022-12-26T01:08:32.846Z,10.40
2022-12-26T01:11:14.099Z,10.40
2022-12-26T01:13:41.978Z,10.50
2022-12-26T01:16:09.163Z,10.40
2022-12-26T01:18:36.610Z,10.40
2022-12-26T01:21:10.226Z,10.50
2022-12-26T01:23:37.184Z,10.40
2022-12-26T01:26:40.346Z,10.40
2022-12-26T01:29:20.499Z,10.30
2022-12-26T01:31:53.141Z,10.40
2022-12-26T01:34:22.033Z,10.40
2022-12-26T01:36:57.971Z,10.40
2022-12-26T01:39:26.639Z,10.40
2022-12-26T01:41:56.572Z,10.40
2022-12-26T01:45:11.769Z,10.40
2022-12-26T01:47:47.353Z,10.50
2022-12-26T01:50:49.105Z,10.60
2022-12-26T01:53:22.673Z,10.60
2022-12-26T01:55:59.804Z,10.60
2022-12-26T01:58:36.069Z,10.60
2022-12-26T02:01:06.085Z,10.70
2022-12-26T02:03:59.387Z,10.60
2022-12-26T02:06:26.338Z,10.60
2022-12-26T02:08:53.933Z,10.60
2022-12-26T02:11:44.505Z,10.60
2022-12-26T02:14:11.941Z,10.60
2022-12-26T02:16:41.249Z,10.60
2022-12-26T02:19:25.407Z,10.60
2022-12-26T02:22:10.726Z,10.70
2022-12-26T02:25:02.297Z,10.50
2022-12-26T02:27:57.052Z,10.50
2022-12-26T02:30:52.182Z,10.40
2022-12-26T02:33:27.833Z,10.40
2022-12-26T02:36:20.615Z,10.40
2022-12-26T02:39:44.572Z,10.40
2022-12-26T02:42:52.940Z,10.30
2022-12-26T02:45:58.951Z,10.40
2022-12-26T02:48:48.501Z,10.40
2022-12-26T02:51:51.657Z,10.50
2022-12-26T02:54:53.579Z,10.40
2022-12-26T02:57:50.681Z,10.50
2022-12-26T03:00:40.126Z,10.60
2022-12-26T03:03:30.754Z,10.70
2022-12-26T03:06:21.335Z,10.70
2022-12-26T03:09:43.646Z,10.60
2022-12-26T03:12:38.479Z,10.60
2022-12-26T03:15:15.992Z,10.50
2022-12-26T03:17:53.626Z,10.50
2022-12-26T03:20:30.626Z,10.40
2022-12-26T03:23:05.427Z,10.40
2022-12-26T03:26:06.633Z,10.40
2022-12-26T03:28:33.572Z,10.40
2022-12-26T03:31:04.924Z,10.30
2022-12-26T03:34:02.777Z,10.30
2022-12-26T03:37:10.995Z,10.40
2022-12-26T03:40:38.555Z,10.40
2022-12-26T03:43:33.092Z,10.50
2022-12-26T03:46:33.399Z,10.60
2022-12-26T03:49:21.789Z,10.60
2022-12-26T03:52:25.209Z,10.60
2022-12-26T03:55:23.127Z,10.60
2022-12-26T03:58:25.931Z,10.70
2022-12-26T04:01:14.731Z,10.60
2022-12-26T04:04:03.045Z,10.50
2022-12-26T04:07:02.116Z,10.50
2022-12-26T04:09:58.171Z,10.60
2022-12-26T04:12:45.948Z,10.50
2022-12-26T04:15:55.906Z,10.60
2022-12-26T04:18:45.023Z,10.50
2022-12-26T04:21:37.281Z,10.40
2022-12-26T04:24:29.454Z,10.40
2022-12-26T04:27:19.586Z,10.40
2022-12-26T04:30:05.120Z,10.40
2022-12-26T04:32:55.201Z,10.40
2022-12-26T04:35:50.606Z,10.50
2022-12-26T04:38:42.731Z,10.40
2022-12-26T04:41:30.167Z,10.40
2022-12-26T04:44:07.058Z,10.40
2022-12-26T04:46:37.798Z,10.50
2022-12-26T04:49:25.609Z,10.50
2022-12-26T04:51:52.737Z,10.50
2022-12-26T04:54:19.666Z,10.70
2022-12-26T04:56:46.781Z,10.70
2022-12-26T04:59:14.180Z,10.70
2022-12-26T05:02:00.267Z,10.80
2022-12-26T05:04:46.330Z,10.80
2022-12-26T05:07:53.913Z,10.80
2022-12-26T05:10:25.065Z,10.80
2022-12-26T05:12:52.932Z,10.70
2022-12-26T05:15:20.572Z,10.80
2022-12-26T05:18:06.206Z,10.80
2022-12-26T05:20:51.661Z,10.70
2022-12-26T05:23:43.089Z,10.60
2022-12-26T05:26:41.614Z,10.60
2022-12-26T05:29:09.019Z,10.50
2022-12-26T05:31:37.046Z,10.50
2022-12-26T05:34:12.221Z,10.40
2022-12-26T05:36:51.663Z,10.40
2022-12-26T05:39:19.024Z,10.40
2022-12-26T05:41:46.050Z,10.30
2022-12-26T05:44:13.335Z,10.30
2022-12-26T05:46:42.472Z,10.30
2022-12-26T05:49:10.097Z,10.30
2022-12-26T05:51:38.261Z,10.20
2022-12-26T05:54:05.716Z,10.20
2022-12-26T05:56:33.609Z,10.10
2022-12-26T05:59:01.462Z,10.10
2022-12-26T06:01:29.777Z,10.10
2022-12-26T06:03:58.936Z,10.00
2022-12-26T06:06:26.313Z,10.10
2022-12-26T06:08:55.071Z,10.10
2022-12-26T06:11:22.528Z,10.00
2022-12-26T06:13:50.333Z,10.00
2022-12-26T06:16:18.536Z,10.00
2022-12-26T06:18:46.550Z,10.00
2022-12-26T06:21:17.967Z,9.90
2022-12-26T06:23:44.762Z,9.80
2022-12-26T06:26:12.891Z,9.90
2022-12-26T06:28:41.999Z,9.90
2022-12-26T06:31:20.368Z,9.90
2022-12-26T06:33:50.488Z,9.90
2022-12-26T06:36:21.546Z,9.90
2022-12-26T06:38:48.775Z,10.00
2022-12-26T06:41:18.413Z,10.00
2022-12-26T06:43:46.088Z,10.10
2022-12-26T06:46:17.413Z,10.20
2022-12-26T06:48:44.483Z,10.20
2022-12-26T06:51:13.580Z,10.30
2022-12-26T06:53:42.005Z,10.30
2022-12-26T06:56:11.695Z,10.20
2022-12-26T06:58:39.113Z,10.30
2022-12-26T07:06:30.442Z,10.40
2022-12-26T07:09:09.686Z,10.70
2022-12-26T07:11:39.148Z,10.40
2022-12-26T07:14:06.495Z,10.30
2022-12-26T07:16:39.989Z,10.20
2022-12-26T07:19:15.396Z,10.30
2022-12-26T07:21:51.361Z,10.30
2022-12-26T07:24:28.206Z,10.40
2022-12-26T07:26:58.142Z,10.30
2022-12-26T07:29:26.054Z,10.30
2022-12-26T07:32:00.102Z,10.20
2022-12-26T07:34:31.911Z,10.20
2022-12-26T07:37:01.138Z,10.20
2022-12-26T07:39:31.414Z,10.20
2022-12-26T07:42:09.474Z,10.20
2022-12-26T07:44:38.633Z,10.30
2022-12-26T07:47:05.615Z,10.20
2022-12-26T07:49:32.841Z,10.20
2022-12-26T07:52:00.645Z,10.30
2022-12-26T07:54:32.177Z,10.40
2022-12-26T07:57:29.808Z,10.50
2022-12-26T07:59:53.563Z,10.50
2022-12-26T08:02:22.901Z,10.50
2022-12-26T08:05:03.210Z,10.50
2022-12-26T08:07:36.133Z,10.50
2022-12-26T08:10:06.302Z,10.50
2022-12-26T08:12:34.609Z,10.40
2022-12-26T08:15:01.356Z,10.40
2022-12-26T08:17:31.378Z,10.30
2022-12-26T08:20:04.409Z,10.30
2022-12-26T08:22:35.170Z,10.20
2022-12-26T08:25:02.190Z,10.30
2022-12-26T08:32:48.427Z,10.40
2022-12-26T08:35:16.243Z,10.40
2022-12-26T08:37:43.482Z,10.60
2022-12-26T08:40:41.868Z,10.60
2022-12-26T08:43:33.445Z,10.50
2022-12-26T08:46:22.678Z,10.60
2022-12-26T08:48:50.623Z,10.60
2022-12-26T08:51:23.726Z,10.60
2022-12-26T08:53:55.123Z,10.70
2022-12-26T08:56:24.359Z,10.70
2022-12-26T08:58:54.760Z,10.50
2022-12-26T09:01:30.371Z,10.50
2022-12-26T09:04:02.025Z,10.70
2022-12-26T09:06:31.299Z,10.70
2022-12-26T09:08:59.625Z,10.80
2022-12-26T09:11:28.724Z,10.80
2022-12-26T09:13:57.588Z,10.80
2022-12-26T09:16:31.508Z,10.80
2022-12-26T09:19:04.585Z,11.00
2022-12-26T09:21:32.909Z,11.10
2022-12-26T09:24:14.707Z,11.10
2022-12-26T09:26:42.694Z,11.10
2022-12-26T09:29:19.886Z,11.10
2022-12-26T09:31:48.547Z,11.10
2022-12-26T09:34:21.434Z,11.10
2022-12-26T09:36:54.027Z,11.10
2022-12-26T09:39:26.865Z,11.30
2022-12-26T09:42:20.000Z,11.30
2022-12-26T09:45:15.969Z,11.40
2022-12-26T09:47:59.187Z,11.30
2022-12-26T09:50:33.867Z,11.20
2022-12-26T09:53:08.171Z,11.10
2022-12-26T09:55:35.973Z,11.10
2022-12-26T09:58:32.487Z,11.10
2022-12-26T10:01:10.453Z,11.10
2022-12-26T10:03:49.357Z,11.10
2022-12-26T10:06:24.660Z,11.10
2022-12-26T10:09:19.173Z,11.10
2022-12-26T10:12:16.336Z,11.10
2022-12-26T10:15:21.142Z,11.20
2022-12-26T10:17:59.620Z,11.20
2022-12-26T10:20:52.906Z,11.30
2022-12-26T10:23:34.373Z,11.40
2022-12-26T10:26:19.215Z,11.30
2022-12-26T10:29:04.797Z,11.30
2022-12-26T10:32:27.553Z,11.30
2022-12-26T10:35:20.464Z,11.40
2022-12-26T10:37:52.998Z,11.40
2022-12-26T10:40:39.242Z,11.50
2022-12-26T10:43:30.769Z,11.60
2022-12-26T10:46:16.402Z,11.70
2022-12-26T10:48:44.157Z,11.70
2022-12-26T10:51:14.284Z,11.60
2022-12-26T10:53:49.656Z,11.50
2022-12-26T10:56:18.453Z,11.40
2022-12-26T10:59:00.494Z,11.20
2022-12-26T11:01:38.026Z,11.20
2022-12-26T11:07:17.336Z,11.10
2022-12-26T11:09:50.995Z,11.10
2022-12-26T11:12:31.074Z,11.00
2022-12-26T11:15:03.630Z,10.90
2022-12-26T11:17:39.862Z,11.00
2022-12-26T11:20:15.956Z,11.00
2022-12-26T11:22:44.879Z,11.30
2022-12-26T11:25:19.235Z,11.50
2022-12-26T11:27:55.331Z,11.60
2022-12-26T11:30:37.323Z,11.60
2022-12-26T11:33:26.161Z,11.50
2022-12-26T11:36:08.404Z,11.30
2022-12-26T11:38:58.766Z,11.40
2022-12-26T11:41:32.319Z,11.70
2022-12-26T11:44:14.618Z,11.80
2022-12-26T11:47:11.430Z,11.70
2022-12-26T11:49:46.060Z,11.50
2022-12-26T11:52:38.800Z,11.50
2022-12-26T11:55:38.068Z,11.60
2022-12-26T11:58:12.178Z,11.60
2022-12-26T12:00:41.371Z,11.50
2022-12-26T12:03:17.595Z,11.50
2022-12-26T12:05:58.390Z,11.70
2022-12-26T12:08:37.718Z,11.80
2022-12-26T12:11:13.375Z,11.70
2022-12-26T12:14:10.897Z,11.70
2022-12-26T12:17:06.258Z,11.70
2022-12-26T12:19:54.465Z,11.70
2022-12-26T12:22:30.120Z,11.60
2022-12-26T12:25:35.678Z,11.60
2022-12-26T12:28:28.533Z,11.50
2022-12-26T12:31:18.429Z,11.30
2022-12-26T12:34:05.340Z,11.20
2022-12-26T12:36:56.218Z,11.20
2022-12-26T12:39:57.371Z,11.30
2022-12-26T12:42:35.922Z,11.30
2022-12-26T12:45:15.443Z,11.00
2022-12-26T12:48:09.627Z,10.70
2022-12-26T12:50:42.437Z,10.90
2022-12-26T12:53:32.185Z,11.00
2022-12-26T12:56:11.154Z,10.90
2022-12-26T12:58:53.363Z,10.90
2022-12-26T13:01:28.328Z,11.00
2022-12-26T13:06:43.172Z,10.90
2022-12-26T13:09:19.268Z,10.70
2022-12-26T13:12:01.442Z,10.70
2022-12-26T13:14:46.747Z,10.70
2022-12-26T13:17:17.610Z,10.70
2022-12-26T13:20:04.430Z,10.70
2022-12-26T13:22:55.406Z,10.60
2022-12-26T13:25:28.032Z,10.50
2022-12-26T13:28:09.183Z,10.60
2022-12-26T13:30:37.976Z,10.60
2022-12-26T13:33:15.773Z,10.70
2022-12-26T13:35:58.293Z,10.80
2022-12-26T13:38:50.741Z,10.80
2022-12-26T13:41:43.129Z,10.80
2022-12-26T13:44:22.955Z,10.60
2022-12-26T13:46:50.958Z,10.40
2022-12-26T13:49:40.469Z,10.30
2022-12-26T13:52:12.101Z,10.20
2022-12-26T13:54:48.355Z,10.30
2022-12-26T13:57:29.934Z,10.30
2022-12-26T14:00:18.064Z,10.20
2022-12-26T14:03:19.573Z,10.20
2022-12-26T14:05:59.011Z,10.20
2022-12-26T14:09:12.410Z,10.20
2022-12-26T14:12:10.204Z,10.20
2022-12-26T14:15:03.969Z,10.20
2022-12-26T14:17:51.507Z,10.20
2022-12-26T14:20:26.226Z,10.20
2022-12-26T14:23:19.197Z,10.00
2022-12-26T14:25:51.965Z,9.90
2022-12-26T14:28:44.170Z,9.90
2022-12-26T14:31:38.470Z,9.80
2022-12-26T14:34:27.453Z,9.80
2022-12-26T14:37:25.797Z,9.80
2022-12-26T14:40:26.278Z,9.90
2022-12-26T14:43:23.520Z,9.80
2022-12-26T14:45:59.298Z,9.70
2022-12-26T14:48:28.873Z,9.60
2022-12-26T14:51:15.628Z,9.50
2022-12-26T14:53:46.456Z,9.50
2022-12-26T14:56:20.514Z,9.60
2022-12-26T14:58:51.414Z,9.50
2022-12-26T15:01:23.523Z,9.50
2022-12-26T15:04:08.995Z,9.30
2022-12-26T15:06:53.580Z,9.20
2022-12-26T15:09:35.599Z,9.30
2022-12-26T15:12:30.874Z,9.30
2022-12-26T15:15:16.673Z,9.30
2022-12-26T15:18:01.328Z,9.40
2022-12-26T15:20:58.661Z,9.30
2022-12-26T15:23:41.720Z,9.10
2022-12-26T15:26:34.735Z,9.10
2022-12-26T15:29:18.046Z,9.00
2022-12-26T15:31:47.831Z,8.90
2022-12-26T15:34:26.225Z,8.70
2022-12-26T15:37:08.039Z,8.60
2022-12-26T15:40:10.134Z,8.40
2022-12-26T15:42:51.151Z,8.20
2022-12-26T15:45:30.131Z,8.00
2022-12-26T15:48:04.749Z,7.80
2022-12-26T15:50:58.020Z,7.70
2022-12-26T15:53:38.316Z,7.40
2022-12-26T15:56:30.485Z,7.40
2022-12-26T15:59:22.053Z,7.30
2022-12-26T16:01:53.273Z,7.20
2022-12-26T16:04:28.510Z,7.10
2022-12-26T16:07:04.330Z,7.00
2022-12-26T16:09:41.724Z,7.10
2022-12-26T16:12:27.200Z,7.10
2022-12-26T16:15:09.218Z,7.10
2022-12-26T16:17:40.176Z,7.10
2022-12-26T16:20:49.792Z,7.00
2022-12-26T16:23:25.449Z,7.00
2022-12-26T16:25:55.529Z,6.90
2022-12-26T16:28:39.086Z,6.90
2022-12-26T16:31:07.790Z,6.90
2022-12-26T16:33:53.445Z,7.00
2022-12-26T16:36:22.685Z,7.10
2022-12-26T16:38:53.261Z,7.10
2022-12-26T16:41:30.219Z,6.90
2022-12-26T16:44:17.916Z,6.80
2022-12-26T16:46:45.082Z,6.70
2022-12-26T16:49:12.330Z,6.60
2022-12-26T16:51:43.272Z,6.60
2022-12-26T16:54:22.949Z,6.50
2022-12-26T16:57:08.473Z,6.40
2022-12-26T16:59:57.739Z,6.30
2022-12-26T17:02:46.071Z,6.30
2022-12-26T17:05:26.941Z,6.30
2022-12-26T17:07:55.767Z,6.10
2022-12-26T17:10:29.051Z,6.20
2022-12-26T17:12:59.439Z,6.10
2022-12-26T17:15:35.474Z,6.00
2022-12-26T17:18:28.177Z,6.00
2022-12-26T17:20:55.121Z,6.00
2022-12-26T17:24:07.068Z,6.00
2022-12-26T17:26:35.855Z,6.10
2022-12-26T17:29:03.416Z,5.90
2022-12-26T17:31:43.092Z,5.80
2022-12-26T17:34:39.067Z,5.80
2022-12-26T17:37:19.507Z,5.90
2022-12-26T17:40:03.625Z,5.80
2022-12-26T17:42:43.282Z,5.80
2022-12-26T17:45:17.278Z,5.80
2022-12-26T17:47:44.660Z,5.70
2022-12-26T17:50:13.194Z,5.60
2022-12-26T17:52:39.999Z,5.70
2022-12-26T17:55:15.362Z,5.70
2022-12-26T17:57:42.502Z,5.70
2022-12-26T18:00:18.829Z,5.80
2022-12-26T18:02:46.101Z,5.80
2022-12-26T18:05:14.182Z,5.70
2022-12-26T18:07:44.862Z,5.60
2022-12-26T18:10:23.926Z,5.70
2022-12-26T18:12:51.921Z,5.60
2022-12-26T18:15:19.596Z,5.70
2022-12-26T18:17:49.908Z,5.70
2022-12-26T18:20:25.387Z,5.70
2022-12-26T18:22:52.635Z,5.70
2022-12-26T18:25:22.583Z,5.70
2022-12-26T18:27:51.248Z,5.60
2022-12-26T18:30:22.740Z,5.60
2022-12-26T18:32:51.660Z,5.70
2022-12-26T18:35:19.663Z,5.70
2022-12-26T18:37:49.153Z,5.90
2022-12-26T18:40:33.378Z,5.80
2022-12-26T18:43:00.872Z,5.80
2022-12-26T18:45:28.277Z,5.80
2022-12-26T18:47:55.142Z,5.70
2022-12-26T18:50:22.906Z,5.60
2022-12-26T18:52:53.546Z,5.60
2022-12-26T18:55:22.388Z,5.60
2022-12-26T18:57:50.217Z,5.60
2022-12-26T19:00:18.325Z,5.60
2022-12-26T19:02:47.464Z,5.60
2022-12-26T19:05:22.362Z,5.50
2022-12-26T19:07:50.253Z,5.60
2022-12-26T19:10:19.784Z,5.50
2022-12-26T19:12:50.056Z,5.50
2022-12-26T19:15:18.381Z,5.60
2022-12-26T19:17:47.609Z,5.50
2022-12-26T19:20:25.109Z,5.50
2022-12-26T19:22:54.291Z,5.50
2022-12-26T19:25:25.099Z,5.50
2022-12-26T19:27:53.333Z,5.60
2022-12-26T19:30:21.383Z,5.50
2022-12-26T19:32:48.767Z,5.40
2022-12-26T19:35:18.109Z,5.40
2022-12-26T19:37:45.503Z,5.50
2022-12-26T19:40:18.429Z,5.60
2022-12-26T19:42:48.348Z,5.50
2022-12-26T19:45:16.426Z,5.60
2022-12-26T19:47:44.595Z,5.40
2022-12-26T19:50:12.101Z,5.50
2022-12-26T19:52:39.513Z,5.40
2022-12-26T19:55:07.434Z,5.50
2022-12-26T19:57:34.243Z,5.40
2022-12-26T20:00:02.441Z,5.50
2022-12-26T20:02:30.416Z,5.40
2022-12-26T20:04:57.673Z,5.40
2022-12-26T20:07:24.451Z,5.40
2022-12-26T20:09:51.534Z,5.30
2022-12-26T20:12:19.435Z,5.40
2022-12-26T20:14:46.420Z,5.40
2022-12-26T20:17:13.648Z,5.30
2022-12-26T20:19:40.659Z,5.30
2022-12-26T20:22:07.728Z,5.20
2022-12-26T20:24:35.109Z,5.20
2022-12-26T20:27:02.959Z,5.20
2022-12-26T20:29:31.058Z,5.30
2022-12-26T20:31:59.473Z,5.10
2022-12-26T20:34:26.623Z,5.20
2022-12-26T20:36:53.563Z,5.20
2022-12-26T20:39:21.076Z,5.10
2022-12-26T20:41:49.146Z,5.30
2022-12-26T20:44:17.293Z,5.30
2022-12-26T20:46:45.622Z,5.30
2022-12-26T20:49:13.328Z,5.30
2022-12-26T20:51:44.278Z,5.20
2022-12-26T20:54:13.965Z,5.20
2022-12-26T20:56:42.460Z,5.00
2022-12-26T20:59:09.475Z,5.00
2022-12-26T21:01:37.972Z,4.90
2022-12-26T21:04:04.951Z,4.90
2022-12-26T21:06:34.846Z,4.90
2022-12-26T21:09:04.886Z,4.80
2022-12-26T21:11:36.125Z,4.90
2022-12-26T21:14:10.096Z,4.80
2022-12-26T21:16:42.109Z,4.90
2022-12-26T21:19:15.077Z,4.80
2022-12-26T21:21:45.724Z,4.80
2022-12-26T21:24:14.316Z,4.80
2022-12-26T21:26:42.502Z,4.80
2022-12-26T21:29:14.155Z,4.80
2022-12-26T21:31:41.458Z,4.80
2022-12-26T21:34:08.808Z,4.90
2022-12-26T21:36:38.997Z,4.90
2022-12-26T21:39:08.879Z,4.90
2022-12-26T21:41:38.755Z,4.80
2022-12-26T21:44:05.778Z,4.90
2022-12-26T21:46:32.783Z,4.90
2022-12-26T21:49:00.986Z,5.00
2022-12-26T21:51:34.809Z,5.00
2022-12-26T21:54:21.461Z,5.00
2022-12-26T21:56:53.948Z,5.00
2022-12-26T21:59:40.431Z,5.00
2022-12-26T22:02:31.843Z,5.10
2022-12-26T22:04:59.301Z,5.10
2022-12-26T22:07:26.732Z,5.10
2022-12-26T22:09:53.705Z,5.10
2022-12-26T22:12:39.224Z,5.00
2022-12-26T22:15:26.847Z,5.10
2022-12-26T22:17:54.886Z,5.20
2022-12-26T22:20:21.942Z,5.10
2022-12-26T22:22:49.362Z,5.10
2022-12-26T22:25:19.110Z,5.10
2022-12-26T22:27:47.251Z,5.00
2022-12-26T22:30:14.347Z,5.10
2022-12-26T22:32:42.118Z,5.20
2022-12-26T22:35:14.775Z,5.30
2022-12-26T22:37:51.357Z,5.20
2022-12-26T22:40:18.375Z,5.30
2022-12-26T22:42:45.420Z,5.30
2022-12-26T22:45:12.515Z,5.30
2022-12-26T22:47:40.326Z,5.30
2022-12-26T22:50:09.561Z,5.30
2022-12-26T22:52:37.332Z,5.30
2022-12-26T22:55:04.617Z,5.30
2022-12-26T22:57:32.640Z,5.20
2022-12-26T23:00:08.694Z,5.20
2022-12-26T23:02:36.282Z,5.30
2022-12-26T23:05:04.242Z,5.20
2022-12-26T23:07:31.580Z,5.10
2022-12-26T23:09:59.120Z,5.10
2022-12-26T23:12:44.545Z,5.20
2022-12-26T23:15:13.747Z,5.20
2022-12-26T23:18:07.346Z,5.20
2022-12-26T23:20:55.647Z,5.30
2022-12-26T23:23:23.594Z,5.40
2022-12-26T23:25:50.570Z,5.40
2022-12-26T23:28:36.696Z,5.40
2022-12-26T23:31:03.608Z,5.30
2022-12-26T23:33:31.788Z,5.30
2022-12-26T23:35:58.835Z,5.30
2022-12-26T23:38:28.062Z,5.30
2022-12-26T23:40:56.158Z,5.20
2022-12-26T23:43:24.003Z,5.20
2022-12-26T23:45:51.042Z,5.10
2022-12-26T23:48:18.885Z,5.10
2022-12-26T23:50:46.804Z,5.20
2022-12-26T23:53:13.773Z,5.20
2022-12-26T23:55:42.782Z,5.20
2022-12-26T23:58:09.640Z,5.10
